sensor_id;sensor_type;location;lat;lon;timestamp;P1;durP1;ratioP1;P2;durP2;ratioP2
36221;SDS011;22266;52.340;4.962;2023-01-10T00:00:40;0.50;;;0.25;;
36221;SDS011;22266;52.340;4.962;2023-01-10T00:03:08;1.00;;;0.00;;
36221;SDS011;22266;52.340;4.962;2023-01-10T00:05:36;4.00;;;2.00;;
36221;SDS011;22266;52.340;4.962;2023-01-10T00:08:04;2.25;;;0.00;;
36221;SDS011;22266;52.340;4.962;2023-01-10T00:10:31;0.50;;;0.50;;
36221;SDS011;22266;52.340;4.962;2023-01-10T00:12:59;0.00;;;0.00;;
36221;SDS011;22266;52.340;4.962;2023-01-10T00:15:44;3.50;;;1.25;;
36221;SDS011;22266;52.340;4.962;2023-01-10T00:18:11;1.00;;;1.00;;
36221;SDS011;22266;52.340;4.962;2023-01-10T00:20:38;0.50;;;0.50;;
36221;SDS011;22266;52.340;4.962;2023-01-10T00:23:04;1.00;;;0.00;;
36221;SDS011;22266;52.340;4.962;2023-01-10T00:25:31;1.25;;;1.00;;
36221;SDS011;22266;52.340;4.962;2023-01-10T00:28:01;3.00;;;0.75;;
36221;SDS011;22266;52.340;4.962;2023-01-10T00:30:47;2.00;;;0.50;;
36221;SDS011;22266;52.340;4.962;2023-01-10T00:33:20;0.25;;;0.25;;
36221;SDS011;22266;52.340;4.962;2023-01-10T00:35:47;4.75;;;2.00;;
36221;SDS011;22266;52.340;4.962;2023-01-10T00:38:13;1.25;;;1.25;;
36221;SDS011;22266;52.340;4.962;2023-01-10T00:40:40;1.00;;;1.00;;
36221;SDS011;22266;52.340;4.962;2023-01-10T00:43:07;1.00;;;1.00;;
36221;SDS011;22266;52.340;4.962;2023-01-10T00:45:54;1.75;;;1.00;;
36221;SDS011;22266;52.340;4.962;2023-01-10T00:48:20;1.00;;;0.00;;
36221;SDS011;22266;52.340;4.962;2023-01-10T00:50:47;0.75;;;0.75;;
36221;SDS011;22266;52.340;4.962;2023-01-10T00:53:13;1.00;;;1.00;;
36221;SDS011;22266;52.340;4.962;2023-01-10T00:55:39;3.50;;;2.00;;
36221;SDS011;22266;52.340;4.962;2023-01-10T00:58:06;2.50;;;1.00;;
36221;SDS011;22266;52.340;4.962;2023-01-10T01:00:37;1.00;;;1.00;;
36221;SDS011;22266;52.340;4.962;2023-01-10T01:03:04;0.00;;;0.00;;
36221;SDS011;22266;52.340;4.962;2023-01-10T01:05:32;4.75;;;1.00;;
36221;SDS011;22266;52.340;4.962;2023-01-10T01:07:58;0.75;;;0.50;;
36221;SDS011;22266;52.340;4.962;2023-01-10T01:10:25;1.00;;;1.00;;
36221;SDS011;22266;52.340;4.962;2023-01-10T01:12:56;1.25;;;1.25;;
36221;SDS011;22266;52.340;4.962;2023-01-10T01:15:24;1.75;;;1.75;;
36221;SDS011;22266;52.340;4.962;2023-01-10T01:17:52;4.00;;;1.00;;
36221;SDS011;22266;52.340;4.962;2023-01-10T01:20:20;0.25;;;0.25;;
36221;SDS011;22266;52.340;4.962;2023-01-10T01:22:46;1.00;;;1.00;;
36221;SDS011;22266;52.340;4.962;2023-01-10T01:25:13;1.00;;;1.00;;
36221;SDS011;22266;52.340;4.962;2023-01-10T01:27:40;2.00;;;2.00;;
36221;SDS011;22266;52.340;4.962;2023-01-10T01:30:07;1.00;;;1.00;;
36221;SDS011;22266;52.340;4.962;2023-01-10T01:32:35;0.00;;;0.00;;
36221;SDS011;22266;52.340;4.962;2023-01-10T01:35:02;0.50;;;0.50;;
36221;SDS011;22266;52.340;4.962;2023-01-10T01:37:29;0.00;;;0.00;;
36221;SDS011;22266;52.340;4.962;2023-01-10T01:39:55;1.00;;;0.00;;
36221;SDS011;22266;52.340;4.962;2023-01-10T01:42:26;1.00;;;0.25;;
36221;SDS011;22266;52.340;4.962;2023-01-10T01:47:34;1.00;;;1.00;;
36221;SDS011;22266;52.340;4.962;2023-01-10T01:52:47;0.00;;;0.00;;
36221;SDS011;22266;52.340;4.962;2023-01-10T01:55:18;1.50;;;1.00;;
36221;SDS011;22266;52.340;4.962;2023-01-10T01:57:46;2.25;;;0.00;;
36221;SDS011;22266;52.340;4.962;2023-01-10T02:00:15;0.50;;;0.50;;
36221;SDS011;22266;52.340;4.962;2023-01-10T02:02:43;1.75;;;1.75;;
36221;SDS011;22266;52.340;4.962;2023-01-10T02:05:27;4.50;;;1.50;;
36221;SDS011;22266;52.340;4.962;2023-01-10T02:07:57;6.75;;;1.00;;
36221;SDS011;22266;52.340;4.962;2023-01-10T02:10:44;3.50;;;1.25;;
36221;SDS011;22266;52.340;4.962;2023-01-10T02:13:18;0.75;;;0.75;;
36221;SDS011;22266;52.340;4.962;2023-01-10T02:15:48;2.00;;;0.00;;
36221;SDS011;22266;52.340;4.962;2023-01-10T02:18:14;4.00;;;4.00;;
36221;SDS011;22266;52.340;4.962;2023-01-10T02:23:34;2.00;;;2.00;;
36221;SDS011;22266;52.340;4.962;2023-01-10T02:34:54;1.50;;;1.25;;
36221;SDS011;22266;52.340;4.962;2023-01-10T02:37:50;1.75;;;1.00;;
36221;SDS011;22266;52.340;4.962;2023-01-10T02:40:29;7.75;;;4.00;;
36221;SDS011;22266;52.340;4.962;2023-01-10T02:43:06;4.00;;;4.00;;
36221;SDS011;22266;52.340;4.962;2023-01-10T02:45:45;1.00;;;1.00;;
36221;SDS011;22266;52.340;4.962;2023-01-10T02:48:15;1.75;;;1.75;;
36221;SDS011;22266;52.340;4.962;2023-01-10T02:53:10;1.00;;;0.50;;
36221;SDS011;22266;52.340;4.962;2023-01-10T02:58:23;0.50;;;0.00;;
36221;SDS011;22266;52.340;4.962;2023-01-10T03:01:28;2.50;;;0.75;;
36221;SDS011;22266;52.340;4.962;2023-01-10T03:06:39;3.00;;;0.75;;
36221;SDS011;22266;52.340;4.962;2023-01-10T03:09:22;2.50;;;2.00;;
36221;SDS011;22266;52.340;4.962;2023-01-10T03:12:10;1.75;;;1.50;;
36221;SDS011;22266;52.340;4.962;2023-01-10T03:14:58;2.00;;;1.00;;
36221;SDS011;22266;52.340;4.962;2023-01-10T03:17:28;2.00;;;2.00;;
36221;SDS011;22266;52.340;4.962;2023-01-10T03:19:57;3.75;;;2.00;;
36221;SDS011;22266;52.340;4.962;2023-01-10T03:22:28;5.50;;;2.00;;
36221;SDS011;22266;52.340;4.962;2023-01-10T03:24:57;4.00;;;2.00;;
36221;SDS011;22266;52.340;4.962;2023-01-10T03:27:46;0.50;;;0.50;;
36221;SDS011;22266;52.340;4.962;2023-01-10T03:33:26;1.00;;;1.00;;
36221;SDS011;22266;52.340;4.962;2023-01-10T03:36:00;1.25;;;1.25;;
36221;SDS011;22266;52.340;4.962;2023-01-10T03:38:45;3.00;;;1.00;;
36221;SDS011;22266;52.340;4.962;2023-01-10T03:47:28;3.50;;;3.50;;
36221;SDS011;22266;52.340;4.962;2023-01-10T03:50:11;2.00;;;1.00;;
36221;SDS011;22266;52.340;4.962;2023-01-10T03:52:42;1.00;;;0.50;;
36221;SDS011;22266;52.340;4.962;2023-01-10T03:55:10;3.00;;;3.00;;
36221;SDS011;22266;52.340;4.962;2023-01-10T03:57:40;2.00;;;2.00;;
36221;SDS011;22266;52.340;4.962;2023-01-10T04:00:08;1.50;;;1.00;;
36221;SDS011;22266;52.340;4.962;2023-01-10T04:02:35;1.00;;;1.00;;
36221;SDS011;22266;52.340;4.962;2023-01-10T04:05:02;4.25;;;3.50;;
36221;SDS011;22266;52.340;4.962;2023-01-10T04:07:28;1.00;;;1.00;;
36221;SDS011;22266;52.340;4.962;2023-01-10T04:09:55;3.00;;;0.75;;
36221;SDS011;22266;52.340;4.962;2023-01-10T04:12:21;8.25;;;4.00;;
36221;SDS011;22266;52.340;4.962;2023-01-10T04:14:48;4.25;;;1.75;;
36221;SDS011;22266;52.340;4.962;2023-01-10T04:17:15;0.50;;;0.50;;
36221;SDS011;22266;52.340;4.962;2023-01-10T04:19:42;1.00;;;1.00;;
36221;SDS011;22266;52.340;4.962;2023-01-10T04:22:09;1.25;;;1.25;;
36221;SDS011;22266;52.340;4.962;2023-01-10T04:24:37;2.00;;;1.25;;
36221;SDS011;22266;52.340;4.962;2023-01-10T04:27:03;1.50;;;1.00;;
36221;SDS011;22266;52.340;4.962;2023-01-10T04:29:30;1.50;;;1.50;;
36221;SDS011;22266;52.340;4.962;2023-01-10T04:31:56;2.25;;;2.25;;
36221;SDS011;22266;52.340;4.962;2023-01-10T04:34:23;2.50;;;1.50;;
36221;SDS011;22266;52.340;4.962;2023-01-10T04:36:49;2.00;;;0.75;;
36221;SDS011;22266;52.340;4.962;2023-01-10T04:39:16;2.75;;;1.00;;
36221;SDS011;22266;52.340;4.962;2023-01-10T04:41:43;0.50;;;0.00;;
36221;SDS011;22266;52.340;4.962;2023-01-10T04:44:10;2.00;;;1.00;;
36221;SDS011;22266;52.340;4.962;2023-01-10T04:46:36;2.00;;;1.75;;
36221;SDS011;22266;52.340;4.962;2023-01-10T04:49:03;4.00;;;1.00;;
36221;SDS011;22266;52.340;4.962;2023-01-10T04:51:29;1.00;;;1.00;;
36221;SDS011;22266;52.340;4.962;2023-01-10T04:53:56;1.00;;;1.00;;
36221;SDS011;22266;52.340;4.962;2023-01-10T04:56:22;3.75;;;3.75;;
36221;SDS011;22266;52.340;4.962;2023-01-10T04:58:49;2.00;;;1.00;;
36221;SDS011;22266;52.340;4.962;2023-01-10T05:01:20;3.50;;;2.00;;
36221;SDS011;22266;52.340;4.962;2023-01-10T05:03:48;3.00;;;1.75;;
36221;SDS011;22266;52.340;4.962;2023-01-10T05:06:16;4.00;;;0.25;;
36221;SDS011;22266;52.340;4.962;2023-01-10T05:08:43;2.00;;;1.00;;
36221;SDS011;22266;52.340;4.962;2023-01-10T05:11:11;5.25;;;1.00;;
36221;SDS011;22266;52.340;4.962;2023-01-10T05:13:37;1.75;;;1.75;;
36221;SDS011;22266;52.340;4.962;2023-01-10T05:16:04;2.50;;;2.00;;
36221;SDS011;22266;52.340;4.962;2023-01-10T05:18:31;7.50;;;2.00;;
36221;SDS011;22266;52.340;4.962;2023-01-10T05:21:01;1.00;;;1.00;;
36221;SDS011;22266;52.340;4.962;2023-01-10T05:23:32;2.00;;;1.50;;
36221;SDS011;22266;52.340;4.962;2023-01-10T05:26:08;4.00;;;4.00;;
36221;SDS011;22266;52.340;4.962;2023-01-10T05:28:37;4.75;;;1.75;;
36221;SDS011;22266;52.340;4.962;2023-01-10T05:31:05;1.00;;;1.00;;
36221;SDS011;22266;52.340;4.962;2023-01-10T05:33:32;2.50;;;2.50;;
36221;SDS011;22266;52.340;4.962;2023-01-10T05:36:00;4.75;;;3.50;;
36221;SDS011;22266;52.340;4.962;2023-01-10T05:38:28;1.00;;;1.00;;
36221;SDS011;22266;52.340;4.962;2023-01-10T05:40:56;3.25;;;2.00;;
36221;SDS011;22266;52.340;4.962;2023-01-10T05:43:24;4.75;;;1.50;;
36221;SDS011;22266;52.340;4.962;2023-01-10T05:45:51;2.00;;;2.00;;
36221;SDS011;22266;52.340;4.962;2023-01-10T05:48:19;7.00;;;5.00;;
36221;SDS011;22266;52.340;4.962;2023-01-10T05:50:45;1.00;;;1.00;;
36221;SDS011;22266;52.340;4.962;2023-01-10T05:53:15;2.50;;;1.00;;
36221;SDS011;22266;52.340;4.962;2023-01-10T05:55:42;3.50;;;2.00;;
36221;SDS011;22266;52.340;4.962;2023-01-10T05:58:08;2.00;;;1.00;;
36221;SDS011;22266;52.340;4.962;2023-01-10T06:00:38;4.25;;;2.50;;
36221;SDS011;22266;52.340;4.962;2023-01-10T06:03:05;1.50;;;1.50;;
36221;SDS011;22266;52.340;4.962;2023-01-10T06:05:32;1.00;;;1.00;;
36221;SDS011;22266;52.340;4.962;2023-01-10T06:07:58;4.00;;;1.00;;
36221;SDS011;22266;52.340;4.962;2023-01-10T06:10:24;4.00;;;0.00;;
36221;SDS011;22266;52.340;4.962;2023-01-10T06:12:52;2.00;;;0.00;;
36221;SDS011;22266;52.340;4.962;2023-01-10T06:15:20;1.00;;;0.00;;
36221;SDS011;22266;52.340;4.962;2023-01-10T06:17:46;1.00;;;1.00;;
36221;SDS011;22266;52.340;4.962;2023-01-10T06:20:13;1.00;;;1.00;;
36221;SDS011;22266;52.340;4.962;2023-01-10T06:22:40;4.00;;;4.00;;
36221;SDS011;22266;52.340;4.962;2023-01-10T06:25:10;7.00;;;2.00;;
36221;SDS011;22266;52.340;4.962;2023-01-10T06:27:39;1.75;;;0.00;;
36221;SDS011;22266;52.340;4.962;2023-01-10T06:30:06;1.00;;;1.00;;
36221;SDS011;22266;52.340;4.962;2023-01-10T06:32:34;1.00;;;1.00;;
36221;SDS011;22266;52.340;4.962;2023-01-10T06:35:00;2.00;;;1.00;;
36221;SDS011;22266;52.340;4.962;2023-01-10T06:37:27;1.75;;;1.25;;
36221;SDS011;22266;52.340;4.962;2023-01-10T06:39:53;1.00;;;1.00;;
36221;SDS011;22266;52.340;4.962;2023-01-10T06:42:20;1.25;;;1.25;;
36221;SDS011;22266;52.340;4.962;2023-01-10T06:44:46;2.25;;;2.25;;
36221;SDS011;22266;52.340;4.962;2023-01-10T06:47:13;4.00;;;4.00;;
36221;SDS011;22266;52.340;4.962;2023-01-10T06:49:39;2.00;;;2.00;;
36221;SDS011;22266;52.340;4.962;2023-01-10T06:52:05;2.00;;;2.00;;
36221;SDS011;22266;52.340;4.962;2023-01-10T06:54:32;2.00;;;2.00;;
36221;SDS011;22266;52.340;4.962;2023-01-10T06:56:58;2.00;;;2.00;;
36221;SDS011;22266;52.340;4.962;2023-01-10T06:59:25;5.50;;;2.00;;
36221;SDS011;22266;52.340;4.962;2023-01-10T07:01:51;7.25;;;1.00;;
36221;SDS011;22266;52.340;4.962;2023-01-10T07:04:18;0.00;;;0.00;;
36221;SDS011;22266;52.340;4.962;2023-01-10T07:06:44;2.00;;;2.00;;
36221;SDS011;22266;52.340;4.962;2023-01-10T07:09:11;2.00;;;2.00;;
36221;SDS011;22266;52.340;4.962;2023-01-10T07:11:37;2.00;;;0.75;;
36221;SDS011;22266;52.340;4.962;2023-01-10T07:14:03;4.00;;;2.50;;
36221;SDS011;22266;52.340;4.962;2023-01-10T07:16:30;4.00;;;1.00;;
36221;SDS011;22266;52.340;4.962;2023-01-10T07:18:58;1.00;;;0.25;;
36221;SDS011;22266;52.340;4.962;2023-01-10T07:21:24;5.00;;;2.00;;
36221;SDS011;22266;52.340;4.962;2023-01-10T07:23:51;3.00;;;2.75;;
36221;SDS011;22266;52.340;4.962;2023-01-10T07:26:17;2.50;;;1.75;;
36221;SDS011;22266;52.340;4.962;2023-01-10T07:28:46;3.50;;;3.50;;
36221;SDS011;22266;52.340;4.962;2023-01-10T07:31:16;1.00;;;1.00;;
36221;SDS011;22266;52.340;4.962;2023-01-10T07:33:44;4.25;;;2.00;;
36221;SDS011;22266;52.340;4.962;2023-01-10T07:36:11;3.00;;;1.00;;
36221;SDS011;22266;52.340;4.962;2023-01-10T07:38:38;4.50;;;2.00;;
36221;SDS011;22266;52.340;4.962;2023-01-10T07:41:05;1.75;;;1.75;;
36221;SDS011;22266;52.340;4.962;2023-01-10T07:43:32;2.50;;;2.50;;
36221;SDS011;22266;52.340;4.962;2023-01-10T07:45:59;1.25;;;1.00;;
36221;SDS011;22266;52.340;4.962;2023-01-10T07:48:26;5.75;;;3.00;;
36221;SDS011;22266;52.340;4.962;2023-01-10T07:50:56;3.50;;;2.00;;
36221;SDS011;22266;52.340;4.962;2023-01-10T07:53:25;7.50;;;5.25;;
36221;SDS011;22266;52.340;4.962;2023-01-10T07:55:52;4.00;;;1.75;;
36221;SDS011;22266;52.340;4.962;2023-01-10T07:58:19;2.00;;;1.00;;
36221;SDS011;22266;52.340;4.962;2023-01-10T08:00:46;1.50;;;0.00;;
36221;SDS011;22266;52.340;4.962;2023-01-10T08:03:14;2.00;;;1.00;;
36221;SDS011;22266;52.340;4.962;2023-01-10T08:05:41;4.00;;;2.00;;
36221;SDS011;22266;52.340;4.962;2023-01-10T08:08:08;1.00;;;1.00;;
36221;SDS011;22266;52.340;4.962;2023-01-10T08:10:37;5.00;;;0.50;;
36221;SDS011;22266;52.340;4.962;2023-01-10T08:13:05;5.00;;;5.00;;
36221;SDS011;22266;52.340;4.962;2023-01-10T08:15:44;7.50;;;4.00;;
36221;SDS011;22266;52.340;4.962;2023-01-10T08:18:12;4.25;;;1.75;;
36221;SDS011;22266;52.340;4.962;2023-01-10T08:20:39;4.75;;;2.00;;
36221;SDS011;22266;52.340;4.962;2023-01-10T08:23:05;5.00;;;2.50;;
36221;SDS011;22266;52.340;4.962;2023-01-10T08:25:32;5.50;;;2.00;;
36221;SDS011;22266;52.340;4.962;2023-01-10T08:27:58;2.25;;;2.25;;
36221;SDS011;22266;52.340;4.962;2023-01-10T08:30:25;3.00;;;2.00;;
36221;SDS011;22266;52.340;4.962;2023-01-10T08:32:51;5.00;;;4.00;;
36221;SDS011;22266;52.340;4.962;2023-01-10T08:35:17;2.00;;;2.00;;
36221;SDS011;22266;52.340;4.962;2023-01-10T08:37:44;4.00;;;1.00;;
36221;SDS011;22266;52.340;4.962;2023-01-10T08:40:10;4.75;;;2.00;;
36221;SDS011;22266;52.340;4.962;2023-01-10T08:42:37;5.00;;;4.00;;
36221;SDS011;22266;52.340;4.962;2023-01-10T08:45:04;3.50;;;2.00;;
36221;SDS011;22266;52.340;4.962;2023-01-10T08:47:30;5.50;;;5.00;;
36221;SDS011;22266;52.340;4.962;2023-01-10T08:49:57;3.00;;;3.00;;
36221;SDS011;22266;52.340;4.962;2023-01-10T08:52:23;5.25;;;4.75;;
36221;SDS011;22266;52.340;4.962;2023-01-10T08:54:50;5.50;;;2.00;;
36221;SDS011;22266;52.340;4.962;2023-01-10T08:57:17;4.75;;;2.00;;
36221;SDS011;22266;52.340;4.962;2023-01-10T08:59:43;8.75;;;5.75;;
36221;SDS011;22266;52.340;4.962;2023-01-10T09:02:13;4.00;;;2.00;;
36221;SDS011;22266;52.340;4.962;2023-01-10T09:04:40;11.50;;;9.00;;
36221;SDS011;22266;52.340;4.962;2023-01-10T09:07:06;5.75;;;4.50;;
36221;SDS011;22266;52.340;4.962;2023-01-10T09:09:32;6.50;;;6.50;;
36221;SDS011;22266;52.340;4.962;2023-01-10T09:11:59;4.50;;;4.00;;
36221;SDS011;22266;52.340;4.962;2023-01-10T09:14:25;3.00;;;2.50;;
36221;SDS011;22266;52.340;4.962;2023-01-10T09:16:52;5.25;;;2.50;;
36221;SDS011;22266;52.340;4.962;2023-01-10T09:19:18;10.00;;;6.50;;
36221;SDS011;22266;52.340;4.962;2023-01-10T09:21:44;3.50;;;3.00;;
36221;SDS011;22266;52.340;4.962;2023-01-10T09:24:11;6.25;;;2.00;;
36221;SDS011;22266;52.340;4.962;2023-01-10T09:26:37;4.50;;;2.00;;
36221;SDS011;22266;52.340;4.962;2023-01-10T09:29:04;12.25;;;6.00;;
36221;SDS011;22266;52.340;4.962;2023-01-10T09:31:30;4.50;;;4.50;;
36221;SDS011;22266;52.340;4.962;2023-01-10T09:33:57;5.75;;;5.75;;
36221;SDS011;22266;52.340;4.962;2023-01-10T09:36:23;12.00;;;7.00;;
36221;SDS011;22266;52.340;4.962;2023-01-10T09:38:50;9.75;;;5.00;;
36221;SDS011;22266;52.340;4.962;2023-01-10T09:44:20;5.75;;;4.50;;
36221;SDS011;22266;52.340;4.962;2023-01-10T09:47:10;6.00;;;5.00;;
36221;SDS011;22266;52.340;4.962;2023-01-10T09:49:54;8.00;;;8.00;;
36221;SDS011;22266;52.340;4.962;2023-01-10T09:52:32;4.25;;;4.25;;
36221;SDS011;22266;52.340;4.962;2023-01-10T09:55:09;7.75;;;6.25;;
36221;SDS011;22266;52.340;4.962;2023-01-10T09:57:44;9.25;;;6.25;;
36221;SDS011;22266;52.340;4.962;2023-01-10T10:00:15;5.75;;;5.75;;
36221;SDS011;22266;52.340;4.962;2023-01-10T10:02:46;7.00;;;7.00;;
36221;SDS011;22266;52.340;4.962;2023-01-10T10:05:21;9.50;;;5.75;;
36221;SDS011;22266;52.340;4.962;2023-01-10T10:07:51;7.50;;;7.25;;
36221;SDS011;22266;52.340;4.962;2023-01-10T10:16:07;7.75;;;7.00;;
36221;SDS011;22266;52.340;4.962;2023-01-10T10:21:27;13.75;;;6.50;;
36221;SDS011;22266;52.340;4.962;2023-01-10T10:24:12;10.00;;;7.75;;
36221;SDS011;22266;52.340;4.962;2023-01-10T10:26:47;9.75;;;6.50;;
36221;SDS011;22266;52.340;4.962;2023-01-10T10:29:26;11.00;;;9.50;;
36221;SDS011;22266;52.340;4.962;2023-01-10T10:34:43;9.50;;;7.75;;
36221;SDS011;22266;52.340;4.962;2023-01-10T10:39:52;6.50;;;6.50;;
36221;SDS011;22266;52.340;4.962;2023-01-10T10:42:22;5.75;;;5.75;;
36221;SDS011;22266;52.340;4.962;2023-01-10T10:47:31;7.00;;;6.00;;
36221;SDS011;22266;52.340;4.962;2023-01-10T10:50:03;8.75;;;6.00;;
36221;SDS011;22266;52.340;4.962;2023-01-10T10:52:33;9.25;;;6.00;;
36221;SDS011;22266;52.340;4.962;2023-01-10T10:55:02;6.25;;;5.25;;
36221;SDS011;22266;52.340;4.962;2023-01-10T10:57:31;4.00;;;4.00;;
36221;SDS011;22266;52.340;4.962;2023-01-10T11:00:04;8.50;;;6.50;;
36221;SDS011;22266;52.340;4.962;2023-01-10T11:02:38;4.00;;;3.00;;
36221;SDS011;22266;52.340;4.962;2023-01-10T11:05:13;10.25;;;7.25;;
36221;SDS011;22266;52.340;4.962;2023-01-10T11:07:44;8.00;;;6.00;;
36221;SDS011;22266;52.340;4.962;2023-01-10T11:10:21;8.00;;;8.00;;
36221;SDS011;22266;52.340;4.962;2023-01-10T11:13:11;7.75;;;7.75;;
36221;SDS011;22266;52.340;4.962;2023-01-10T11:15:48;8.50;;;6.25;;
36221;SDS011;22266;52.340;4.962;2023-01-10T11:18:16;6.50;;;4.00;;
36221;SDS011;22266;52.340;4.962;2023-01-10T11:21:04;4.25;;;4.25;;
36221;SDS011;22266;52.340;4.962;2023-01-10T11:23:37;8.00;;;6.25;;
36221;SDS011;22266;52.340;4.962;2023-01-10T11:26:24;4.50;;;4.50;;
36221;SDS011;22266;52.340;4.962;2023-01-10T11:31:54;5.25;;;2.50;;
36221;SDS011;22266;52.340;4.962;2023-01-10T11:37:01;4.50;;;4.50;;
36221;SDS011;22266;52.340;4.962;2023-01-10T11:39:30;6.00;;;5.50;;
36221;SDS011;22266;52.340;4.962;2023-01-10T11:42:10;7.00;;;7.00;;
36221;SDS011;22266;52.340;4.962;2023-01-10T11:44:55;13.50;;;7.75;;
36221;SDS011;22266;52.340;4.962;2023-01-10T11:47:50;1.00;;;1.00;;
36221;SDS011;22266;52.340;4.962;2023-01-10T11:50:27;5.50;;;4.25;;
36221;SDS011;22266;52.340;4.962;2023-01-10T11:52:56;8.50;;;6.75;;
36221;SDS011;22266;52.340;4.962;2023-01-10T11:55:24;3.25;;;3.25;;
36221;SDS011;22266;52.340;4.962;2023-01-10T11:58:02;5.50;;;5.50;;
36221;SDS011;22266;52.340;4.962;2023-01-10T12:00:39;6.00;;;1.75;;
36221;SDS011;22266;52.340;4.962;2023-01-10T12:06:00;4.50;;;2.00;;
36221;SDS011;22266;52.340;4.962;2023-01-10T12:08:36;14.25;;;8.00;;
36221;SDS011;22266;52.340;4.962;2023-01-10T12:11:05;7.00;;;4.00;;
36221;SDS011;22266;52.340;4.962;2023-01-10T12:13:47;4.00;;;3.50;;
36221;SDS011;22266;52.340;4.962;2023-01-10T12:18:42;8.00;;;6.25;;
36221;SDS011;22266;52.340;4.962;2023-01-10T12:21:09;6.75;;;5.00;;
36221;SDS011;22266;52.340;4.962;2023-01-10T12:23:39;2.00;;;2.00;;
36221;SDS011;22266;52.340;4.962;2023-01-10T12:26:10;1.00;;;1.00;;
36221;SDS011;22266;52.340;4.962;2023-01-10T12:28:47;4.00;;;2.00;;
36221;SDS011;22266;52.340;4.962;2023-01-10T12:31:17;4.00;;;4.00;;
36221;SDS011;22266;52.340;4.962;2023-01-10T12:33:52;5.00;;;5.00;;
36221;SDS011;22266;52.340;4.962;2023-01-10T12:39:23;4.50;;;4.00;;
36221;SDS011;22266;52.340;4.962;2023-01-10T12:42:07;6.00;;;6.00;;
36221;SDS011;22266;52.340;4.962;2023-01-10T12:44:59;12.75;;;5.00;;
36221;SDS011;22266;52.340;4.962;2023-01-10T12:47:51;4.25;;;3.00;;
36221;SDS011;22266;52.340;4.962;2023-01-10T12:50:25;4.50;;;2.00;;
36221;SDS011;22266;52.340;4.962;2023-01-10T12:53:05;9.75;;;5.75;;
36221;SDS011;22266;52.340;4.962;2023-01-10T12:55:44;2.50;;;2.50;;
36221;SDS011;22266;52.340;4.962;2023-01-10T12:58:16;4.75;;;2.00;;
36221;SDS011;22266;52.340;4.962;2023-01-10T13:00:48;9.00;;;4.25;;
36221;SDS011;22266;52.340;4.962;2023-01-10T13:03:19;4.25;;;4.00;;
36221;SDS011;22266;52.340;4.962;2023-01-10T13:05:47;3.00;;;2.00;;
36221;SDS011;22266;52.340;4.962;2023-01-10T13:08:16;6.00;;;4.50;;
36221;SDS011;22266;52.340;4.962;2023-01-10T13:10:46;4.50;;;4.50;;
36221;SDS011;22266;52.340;4.962;2023-01-10T13:19:18;4.75;;;4.00;;
36221;SDS011;22266;52.340;4.962;2023-01-10T13:21:49;5.00;;;3.75;;
36221;SDS011;22266;52.340;4.962;2023-01-10T13:24:21;5.50;;;4.25;;
36221;SDS011;22266;52.340;4.962;2023-01-10T13:26:52;4.25;;;4.25;;
36221;SDS011;22266;52.340;4.962;2023-01-10T13:29:29;4.00;;;2.00;;
36221;SDS011;22266;52.340;4.962;2023-01-10T13:32:14;4.75;;;4.00;;
36221;SDS011;22266;52.340;4.962;2023-01-10T13:34:46;7.25;;;7.25;;
36221;SDS011;22266;52.340;4.962;2023-01-10T13:37:20;4.75;;;3.00;;
36221;SDS011;22266;52.340;4.962;2023-01-10T13:39:52;6.00;;;3.00;;
36221;SDS011;22266;52.340;4.962;2023-01-10T13:42:31;3.25;;;3.25;;
36221;SDS011;22266;52.340;4.962;2023-01-10T13:45:22;7.25;;;4.00;;
36221;SDS011;22266;52.340;4.962;2023-01-10T13:47:59;4.00;;;4.00;;
36221;SDS011;22266;52.340;4.962;2023-01-10T14:00:48;4.00;;;4.00;;
36221;SDS011;22266;52.340;4.962;2023-01-10T14:08:56;8.00;;;4.00;;
36221;SDS011;22266;52.340;4.962;2023-01-10T14:11:27;8.00;;;4.00;;
36221;SDS011;22266;52.340;4.962;2023-01-10T14:16:47;6.25;;;5.00;;
36221;SDS011;22266;52.340;4.962;2023-01-10T14:21:58;4.50;;;4.50;;
36221;SDS011;22266;52.340;4.962;2023-01-10T14:24:27;3.00;;;3.00;;
36221;SDS011;22266;52.340;4.962;2023-01-10T14:27:00;4.25;;;1.50;;
36221;SDS011;22266;52.340;4.962;2023-01-10T14:29:28;7.75;;;6.00;;
36221;SDS011;22266;52.340;4.962;2023-01-10T14:31:57;7.00;;;7.00;;
36221;SDS011;22266;52.340;4.962;2023-01-10T14:34:27;5.25;;;2.00;;
36221;SDS011;22266;52.340;4.962;2023-01-10T14:37:00;3.25;;;1.75;;
36221;SDS011;22266;52.340;4.962;2023-01-10T14:39:31;5.00;;;4.00;;
36221;SDS011;22266;52.340;4.962;2023-01-10T14:41:59;3.00;;;3.00;;
36221;SDS011;22266;52.340;4.962;2023-01-10T14:44:31;4.25;;;4.25;;
36221;SDS011;22266;52.340;4.962;2023-01-10T14:50:27;4.25;;;1.50;;
36221;SDS011;22266;52.340;4.962;2023-01-10T14:52:57;3.50;;;1.00;;
36221;SDS011;22266;52.340;4.962;2023-01-10T14:55:24;6.75;;;3.50;;
36221;SDS011;22266;52.340;4.962;2023-01-10T14:58:00;4.50;;;3.50;;
36221;SDS011;22266;52.340;4.962;2023-01-10T15:00:31;5.00;;;4.50;;
36221;SDS011;22266;52.340;4.962;2023-01-10T15:03:01;2.75;;;2.75;;
36221;SDS011;22266;52.340;4.962;2023-01-10T15:05:30;7.50;;;5.00;;
36221;SDS011;22266;52.340;4.962;2023-01-10T15:08:19;6.25;;;4.75;;
36221;SDS011;22266;52.340;4.962;2023-01-10T15:10:56;8.00;;;4.75;;
36221;SDS011;22266;52.340;4.962;2023-01-10T15:13:27;5.50;;;4.75;;
36221;SDS011;22266;52.340;4.962;2023-01-10T15:15:56;6.75;;;2.00;;
36221;SDS011;22266;52.340;4.962;2023-01-10T15:18:45;9.25;;;3.50;;
36221;SDS011;22266;52.340;4.962;2023-01-10T15:21:12;4.00;;;4.00;;
36221;SDS011;22266;52.340;4.962;2023-01-10T15:23:41;6.75;;;5.50;;
36221;SDS011;22266;52.340;4.962;2023-01-10T15:26:11;5.50;;;4.50;;
36221;SDS011;22266;52.340;4.962;2023-01-10T15:28:42;4.00;;;3.50;;
36221;SDS011;22266;52.340;4.962;2023-01-10T15:31:14;5.50;;;5.50;;
36221;SDS011;22266;52.340;4.962;2023-01-10T15:33:45;10.00;;;6.50;;
36221;SDS011;22266;52.340;4.962;2023-01-10T15:36:23;6.75;;;4.75;;
36221;SDS011;22266;52.340;4.962;2023-01-10T15:38:52;6.00;;;6.00;;
36221;SDS011;22266;52.340;4.962;2023-01-10T15:41:20;7.50;;;5.00;;
36221;SDS011;22266;52.340;4.962;2023-01-10T15:43:48;9.75;;;7.50;;
36221;SDS011;22266;52.340;4.962;2023-01-10T15:46:23;7.50;;;5.75;;
36221;SDS011;22266;52.340;4.962;2023-01-10T15:48:53;8.50;;;8.50;;
36221;SDS011;22266;52.340;4.962;2023-01-10T15:51:33;8.00;;;7.75;;
36221;SDS011;22266;52.340;4.962;2023-01-10T15:54:08;10.75;;;7.75;;
36221;SDS011;22266;52.340;4.962;2023-01-10T15:57:05;4.00;;;4.00;;
36221;SDS011;22266;52.340;4.962;2023-01-10T15:59:46;5.25;;;5.25;;
36221;SDS011;22266;52.340;4.962;2023-01-10T16:02:29;7.50;;;6.00;;
36221;SDS011;22266;52.340;4.962;2023-01-10T16:04:58;6.00;;;4.25;;
36221;SDS011;22266;52.340;4.962;2023-01-10T16:07:41;5.00;;;4.00;;
36221;SDS011;22266;52.340;4.962;2023-01-10T16:12:44;6.50;;;3.00;;
36221;SDS011;22266;52.340;4.962;2023-01-10T16:15:33;5.00;;;4.75;;
36221;SDS011;22266;52.340;4.962;2023-01-10T16:18:01;4.50;;;4.50;;
36221;SDS011;22266;52.340;4.962;2023-01-10T16:20:28;11.75;;;6.00;;
36221;SDS011;22266;52.340;4.962;2023-01-10T16:22:57;6.00;;;5.25;;
36221;SDS011;22266;52.340;4.962;2023-01-10T16:25:30;3.25;;;3.25;;
36221;SDS011;22266;52.340;4.962;2023-01-10T16:27:59;5.50;;;5.00;;
36221;SDS011;22266;52.340;4.962;2023-01-10T16:30:30;6.00;;;5.25;;
36221;SDS011;22266;52.340;4.962;2023-01-10T16:32:58;5.00;;;4.50;;
36221;SDS011;22266;52.340;4.962;2023-01-10T16:35:27;5.00;;;5.00;;
36221;SDS011;22266;52.340;4.962;2023-01-10T16:37:55;5.50;;;3.50;;
36221;SDS011;22266;52.340;4.962;2023-01-10T16:40:25;13.00;;;9.75;;
36221;SDS011;22266;52.340;4.962;2023-01-10T16:42:54;4.75;;;4.00;;
36221;SDS011;22266;52.340;4.962;2023-01-10T16:45:39;4.00;;;4.00;;
36221;SDS011;22266;52.340;4.962;2023-01-10T16:48:06;5.75;;;4.25;;
36221;SDS011;22266;52.340;4.962;2023-01-10T16:50:32;4.25;;;3.00;;